Huvudsida
METAR-TAF:

METAR-TAF

Flygplatser :

Stockholm-Västerås flygplats

Västerås, Sverige

latitud: 59-35N, longitud: 016-38E, höjd: 6 m

Aktuellt väderrapport

Denna rapport gjordes för 13 minuter sedan, klockan 21:50 UTC
Vind 8 kt från väst/sydväst, varierande mellan syd/sydväst och väst
Temperatur 15°C
Fuktighet 72%
Tryck 1011 hPa
Sikt 10 km eller mer

METAR: ESOW 202150Z AUTO 24008KT 200V280 9999 NCD 15/10 Q1011

Tid: 00:03 (22:03 UTC)

Väderprognos

Denna rapport gjordes för 10 timmar och 33 minuter sedan, klockan 11:30 UTC
Prognos gäller från 20 kl. 12 UTC till 20 kl. 15 UTC
Vind 13 kt från sydväst i byarna ända upp till 23 kt
Sikt 10 km eller mer
Inga moln under 1 500 m eller inga cumulonimbus

TAF: ESOW 201130Z 2012/2015 23013G23KT CAVOK

Aktuella väderrapporter och prognoser från 4000 flygplatser (METAR- och TAF-rapporter).

De tillgängliga stationerna syns som gula och röda prickar på kartan.

För musen över prickarna för att se namnen på stationerna.

Klicka sedan för att få väderrapporter och prognoser.

För att ändra kartan: Klicka på de gröna knapparna med ett svart kors på för att zooma in; den gröna knappen med ett streck på för att zooma ut; eller på de gröna pilarna för angränsande kartor.


METAR-TAF: